ADDS METAR Data

Data at: 0747 UTC 24 Oct 2017

METAR for:KPSM (Portsmouth Intl, NH, US)
Text:KPSM 240656Z 13006KT 8SM FEW024 BKN037 16/16 A3009 RMK AO2A SLP192 T01550155 $
Temperature: 15.5°C ( 60°F)
Dewpoint: 15.5°C ( 60°F) [RH = 100%]
Pressure (altimeter):30.09 inches Hg (1019.0 mb) [Sea level pressure: 1019.2 mb]
Winds:from the SE (130 degrees) at 7 MPH (6 knots; 3.1 m/s)
Visibility: 8 sm ( 13 km)
Ceiling:3700 feet AGL
Clouds: few clouds at 2400 feet AGL, broken clouds at 3700 feet AGL
QC Flag:SOME DATA ABOVE MAY BE INACCURATE!!!"$" is an indication the sensor requires maintenance.